Pride Of Kent — MQCJ2 — position and weather

sailwx.info

Track history (hours):
 
Tides and Currents Weather Stations Pressure Air Temp Water Temp Dewpoint Dewpoint Depression Visibility Wind Speed Wind Dir Waves Ship Positions

Pride Of Kent

Operator: P & O Ferries

Last reported at 2014-Sep-16 20:29 UTC. Time now 2014-Sep-16 21:31 UTC.
Position N 51°07' E 001°20'.

Length 180 m; draft 6 m.

Type: Passenger vessel. MMSI: 232009000.

Date/timePositionNaut miles runAvg speedWind from/ knotsBaromVisibWave heightAir tempDewpointWater temp
2014-Sep-16 20:29N 51°07' E 001°20'4 4.6
2014-Sep-16 19:34N 51°06' E 001°26'1717.2
2014-Sep-16 18:33N 50°58' E 001°51'0 0.0
2014-Sep-16 17:33N 50°58' E 001°51'1717.4
2014-Sep-16 16:33N 51°05' E 001°25'4 4.0
2014-Sep-16 15:34N 51°07' E 001°20'1514.6
2014-Sep-16 14:33N 50°60' E 001°40'7 5.6
2014-Sep-16 13:16N 50°58' E 001°51'1014.3
2014-Sep-16 12:33N 50°60' E 001°35'1211.4
2014-Sep-16 11:29N 51°07' E 001°20'6 6.6
2014-Sep-16 10:33N 51°06' E 001°29'1615.6
2014-Sep-16 09:33N 50°58' E 001°51'2 2.3
2014-Sep-16 08:34N 50°58' E 001°47'1616.4
2014-Sep-16 07:33N 51°05' E 001°24'3 2.5
2014-Sep-16 06:22N 51°07' E 001°20'1215.0
2014-Sep-16 05:34N 51°02' E 001°38'10 9.6
2014-Sep-16 04:33N 50°58' E 001°51'4 3.6
2014-Sep-16 03:33N 50°58' E 001°45'1615.7
2014-Sep-16 02:34N 51°06' E 001°24'3 2.6
2014-Sep-16 01:23N 51°07' E 001°20'3 4.0
2014-Sep-16 00:34N 51°06' E 001°25'1615.8
2014-Sep-15 23:34N 50°58' E 001°46'3 2.8
2014-Sep-15 22:33N 50°58' E 001°51'1212.0
2014-Sep-15 21:33N 51°02' E 001°33'10 8.0
2014-Sep-15 20:19N 51°07' E 001°20'810.7
2014-Sep-15 19:33N 51°06' E 001°33'1413.7
2014-Sep-15 18:33N 50°58' E 001°51'3 3.3
2014-Sep-15 17:31N 50°58' E 001°45'1918.5
2014-Sep-15 16:30N 51°07' E 001°20'1 0.7
2014-Sep-15 15:33N 51°07' E 001°21'1817.8
2014-Sep-15 14:33N 50°58' E 001°45'3 2.6
2014-Sep-15 13:13N 50°58' E 001°50'1216.5
2014-Sep-15 12:30N 50°59' E 001°32'11 9.2
2014-Sep-15 11:18N 51°07' E 001°20'6 8.3
2014-Sep-15 10:34N 51°05' E 001°29'1511.6
2014-Sep-15 09:14N 50°58' E 001°51'4 5.4
2014-Sep-15 08:27N 50°58' E 001°44'1718.9
2014-Sep-15 07:32N 51°07' E 001°21'1 0.7
2014-Sep-15 06:30N 51°07' E 001°20'1212.8
2014-Sep-15 05:34N 51°01' E 001°36'7 3.5
2014-Sep-15 03:33N 50°58' E 001°46'1515.0
2014-Sep-15 02:33N 51°05' E 001°26'4 3.0
2014-Sep-15 01:11N 51°07' E 001°20'3 4.7
2014-Sep-15 00:33N 51°06' E 001°25'1615.7
2014-Sep-14 23:33N 50°58' E 001°46'3 3.3
2014-Sep-14 22:32N 50°58' E 001°51'1313.3
2014-Sep-14 21:33N 51°01' E 001°31'5 2.4
2014-Sep-14 19:34N 51°06' E 001°29'14 6.6
2014-Sep-14 17:30N 50°58' E 001°46'18 9.1
2014-Sep-14 15:33N 51°07' E 001°22'1818.3
2014-Sep-14 14:34N 50°58' E 001°47'3 2.6
2014-Sep-14 13:33N 50°58' E 001°51'1211.6
2014-Sep-14 12:30N 51°01' E 001°32'10 7.1
2014-Sep-14 11:04N 51°07' E 001°20'917.7
2014-Sep-14 10:34N 51°04' E 001°33'1212.1
2014-Sep-14 09:32N 50°58' E 001°51'9 7.5
2014-Sep-14 08:17N 50°59' E 001°36'10 3.5
2014-Sep-14 05:34N 51°07' E 001°27'1717.1
2014-Sep-14 04:33N 50°58' E 001°51'1 0.6
2014-Sep-14 03:17N 50°58' E 001°50'3 4.5
2014-Sep-14 02:33N 51°00' E 001°45'0 0.0
2014-Sep-14 01:33N 51°00' E 001°45'10 2.6
2014-Sep-13 21:34N 51°04' E 001°30'1 0.5
2014-Sep-13 19:34N 51°05' E 001°29'1512.4
2014-Sep-13 18:19N 50°58' E 001°51'7 6.1
2014-Sep-13 17:14N 50°59' E 001°41'1217.8
2014-Sep-13 16:33N 51°05' E 001°25'2 2.0
2014-Sep-13 15:27N 51°07' E 001°22'1718.4
2014-Sep-13 14:34N 50°58' E 001°45'4 3.3
2014-Sep-13 13:21N 50°58' E 001°51'1011.7
2014-Sep-13 12:30N 51°00' E 001°36'7 3.4
2014-Sep-13 10:33N 51°05' E 001°28'1615.8
2014-Sep-13 09:33N 50°58' E 001°51'5 4.6
2014-Sep-13 08:27N 50°58' E 001°43'16 7.1
2014-Sep-13 06:12N 51°07' E 001°22'1117.8
2014-Sep-13 05:33N 51°02' E 001°39'9 6.6
2014-Sep-13 04:09N 50°58' E 001°52'5 8.4
2014-Sep-13 03:33N 50°58' E 001°44'1515.2
2014-Sep-13 02:33N 51°06' E 001°23'1 0.4
2014-Sep-13 00:33N 51°07' E 001°23'1717.0
2014-Sep-12 23:33N 50°58' E 001°47'3 2.7
2014-Sep-12 22:32N 50°58' E 001°51'1413.9
2014-Sep-12 21:34N 51°02' E 001°31'2 0.8
2014-Sep-12 19:33N 51°04' E 001°30'1412.1
2014-Sep-12 18:22N 50°58' E 001°51'5 6.1
2014-Sep-12 17:30N 50°58' E 001°43'15 7.8
2014-Sep-12 15:33N 51°07' E 001°24'1616.3
2014-Sep-12 14:34N 50°58' E 001°45'7 3.6
2014-Sep-12 12:29N 51°01' E 001°34'7 3.6
2014-Sep-12 10:33N 51°06' E 001°26'1717.2
2014-Sep-12 09:34N 50°58' E 001°51'1 0.6
2014-Sep-12 08:34N 50°58' E 001°50'1716.8
2014-Sep-12 07:34N 51°06' E 001°26'4 2.9
2014-Sep-12 06:15N 51°07' E 001°20'1216.7
2014-Sep-12 05:34N 51°01' E 001°36'10 9.7
2014-Sep-12 04:33N 50°58' E 001°51'3 2.7
2014-Sep-12 03:30N 50°58' E 001°46'1414.5
2014-Sep-12 02:33N 51°04' E 001°27'2 1.2
2014-Sep-12 00:34N 51°06' E 001°26'1616.1
2014-Sep-11 23:33N 50°58' E 001°49'1 1.3
2014-Sep-11 22:26N 50°58' E 001°51'1315.1
2014-Sep-11 21:33N 51°02' E 001°31'9 6.0
2014-Sep-11 20:07N 51°07' E 001°20'1017.6
2014-Sep-11 19:34N 51°02' E 001°34'1211.1
2014-Sep-11 18:31N 50°58' E 001°51'6 6.0
2014-Sep-11 17:33N 50°58' E 001°42'16 8.1
2014-Sep-11 15:33N 51°07' E 001°21'1817.8
2014-Sep-11 14:33N 50°58' E 001°45'3 2.2
2014-Sep-11 13:06N 50°58' E 001°50'1119.9
2014-Sep-11 12:34N 50°60' E 001°33'4 2.2
2014-Sep-11 10:34N 51°04' E 001°31'1413.5
2014-Sep-11 09:33N 50°58' E 001°51'8 6.3
2014-Sep-11 08:15N 50°59' E 001°38'1318.2
2014-Sep-11 07:34N 51°06' E 001°22'1 0.7
2014-Sep-11 06:16N 51°07' E 001°22'1014.9
2014-Sep-11 05:33N 51°02' E 001°36'10 9.9
2014-Sep-11 04:33N 50°58' E 001°51'3 3.5
2014-Sep-11 03:33N 50°58' E 001°46'1414.2
2014-Sep-11 02:33N 51°05' E 001°27'3 1.3
2014-Sep-11 00:34N 51°07' E 001°30'1515.4
2014-Sep-10 23:33N 50°58' E 001°51'0 0.3
2014-Sep-10 22:29N 50°58' E 001°51'1415.3
2014-Sep-10 21:34N 51°03' E 001°30'7 5.3
2014-Sep-10 20:16N 51°07' E 001°22'1419.6
2014-Sep-10 19:33N 50°60' E 001°40'7 6.3
2014-Sep-10 18:27N 50°58' E 001°51'1112.2
2014-Sep-10 17:33N 50°59' E 001°34'8 3.8
2014-Sep-10 15:33N 51°06' E 001°29'1612.8
2014-Sep-10 14:19N 50°58' E 001°51'1 0.8
2014-Sep-10 13:14N 50°58' E 001°50'1319.3
2014-Sep-10 12:33N 51°03' E 001°31'2 0.9
2014-Sep-10 10:34N 51°04' E 001°33'1311.9
2014-Sep-10 09:28N 50°58' E 001°51'3 2.8
2014-Sep-10 08:29N 50°58' E 001°47'1516.6
2014-Sep-10 07:33N 51°04' E 001°24'3 2.3
2014-Sep-10 06:04N 51°07' E 001°21'917.8
2014-Sep-10 05:34N 51°03' E 001°34'1211.8
2014-Sep-10 04:33N 50°58' E 001°51'4 3.9
2014-Sep-10 03:27N 50°58' E 001°44'1314.0
2014-Sep-10 02:34N 51°05' E 001°28'3 1.4
2014-Sep-10 00:33N 51°07' E 001°25'1616.0
2014-Sep-09 23:33N 50°58' E 001°46'3 2.3
2014-Sep-09 22:19N 50°58' E 001°51'1316.7
2014-Sep-09 21:33N 51°01' E 001°31'9 5.7
2014-Sep-09 20:03N 51°07' E 001°21'816.7
2014-Sep-09 19:33N 51°03' E 001°32'1311.2
2014-Sep-09 18:26N 50°58' E 001°51'5 5.8
2014-Sep-09 17:31N 50°58' E 001°42'15 7.8
2014-Sep-09 15:33N 51°07' E 001°23'1918.6
2014-Sep-09 14:33N 50°58' E 001°49'2 1.5
2014-Sep-09 13:25N 50°58' E 001°52'1314.4
2014-Sep-09 12:29N 51°00' E 001°31'9 6.5
2014-Sep-09 11:03N 51°07' E 001°21'917.7
2014-Sep-09 10:34N 51°03' E 001°33'1212.4
2014-Sep-09 09:33N 50°58' E 001°51'4 3.9
2014-Sep-09 08:32N 50°58' E 001°45'18 8.0
2014-Sep-09 06:16N 51°07' E 001°20'1216.3
2014-Sep-09 05:34N 51°02' E 001°36'10 9.9
2014-Sep-09 04:31N 50°58' E 001°52'3 3.1
2014-Sep-09 03:29N 50°58' E 001°47'1516.6
2014-Sep-09 02:33N 51°05' E 001°25'2 0.8
2014-Sep-09 00:33N 51°07' E 001°24'1616.4
2014-Sep-08 23:33N 50°58' E 001°46'3 2.5
2014-Sep-08 22:27N 50°58' E 001°51'1415.8
2014-Sep-08 21:33N 51°02' E 001°29'3 1.3
2014-Sep-08 19:33N 51°04' E 001°32'1410.2
2014-Sep-08 18:13N 50°58' E 001°51'5 6.3
2014-Sep-08 17:29N 50°58' E 001°44'16 8.0
2014-Sep-08 15:27N 51°07' E 001°22'1718.7
2014-Sep-08 14:33N 50°58' E 001°45'4 3.4
2014-Sep-08 13:16N 50°58' E 001°52'1114.6
2014-Sep-08 12:33N 51°00' E 001°35'6 2.9
2014-Sep-08 10:33N 51°05' E 001°30'1510.9
2014-Sep-08 09:11N 50°58' E 001°51'1 1.5
2014-Sep-08 08:32N 50°58' E 001°50'1817.9
2014-Sep-08 07:34N 51°06' E 001°24'2 1.3
2014-Sep-08 06:07N 51°07' E 001°22'916.4
2014-Sep-08 05:33N 51°02' E 001°34'1111.0
2014-Sep-08 04:32N 50°58' E 001°51'5 4.5
2014-Sep-08 03:26N 50°58' E 001°43'1516.9
2014-Sep-08 02:34N 51°06' E 001°24'1 0.6
2014-Sep-08 00:33N 51°06' E 001°25'1616.3
2014-Sep-07 23:34N 50°58' E 001°49'1 1.1
2014-Sep-07 22:26N 50°58' E 001°50'1416.5
2014-Sep-07 21:34N 51°03' E 001°29'2 1.1
2014-Sep-07 19:34N 51°05' E 001°31'13 6.3
2014-Sep-07 17:33N 50°58' E 001°48'1515.5
2014-Sep-07 16:34N 51°05' E 001°26'5 4.2
2014-Sep-07 15:30N 51°07' E 001°20'1515.8
2014-Sep-07 14:33N 50°60' E 001°41'7 6.2
2014-Sep-07 13:28N 50°58' E 001°51'1011.3
2014-Sep-07 12:33N 50°59' E 001°35'1211.9
2014-Sep-07 11:31N 51°07' E 001°20'1010.2
2014-Sep-07 10:33N 51°04' E 001°35'1210.8
2014-Sep-07 09:27N 50°58' E 001°51'5 5.9
2014-Sep-07 08:33N 50°58' E 001°43'1713.6
2014-Sep-07 07:19N 51°07' E 001°20'0 0.0
2014-Sep-07 06:29N 51°07' E 001°20'5 5.1
2014-Sep-07 05:33N 51°04' E 001°26'3 2.7
2014-Sep-07 04:33N 51°04' E 001°30'1313.2
2014-Sep-07 03:33N 50°58' E 001°49'1716.9
2014-Sep-07 02:33N 51°06' E 001°25'1813.1
2014-Sep-07 01:10N 50°58' E 001°51'1727.8
2014-Sep-07 00:34N 51°06' E 001°27'1414.3
2014-Sep-06 23:33N 50°58' E 001°46'3 3.0
2014-Sep-06 22:33N 50°58' E 001°51'1313.4
2014-Sep-06 21:34N 51°02' E 001°31'  
Track history (hours):
 
Tides and Currents Weather Stations Pressure Air Temp Water Temp Dewpoint Dewpoint Depression Visibility Wind Speed Wind Dir Waves Ship Positions

Pride Of Kent

Operator: P & O Ferries

Last reported at 2014-Sep-16 20:29 UTC. Time now 2014-Sep-16 21:31 UTC.
Position N 51°07' E 001°20'.

Length 180 m; draft 6 m.

Type: Passenger vessel. MMSI: 232009000.

Date/timePositionNaut miles runAvg speedWind from/ knotsBaromVisibWave heightAir tempDewpointWater temp
2014-Sep-16 20:29N 51°07' E 001°20'4 4.6
2014-Sep-16 19:34N 51°06' E 001°26'1717.2
2014-Sep-16 18:33N 50°58' E 001°51'0 0.0
2014-Sep-16 17:33N 50°58' E 001°51'1717.4
2014-Sep-16 16:33N 51°05' E 001°25'4 4.0
2014-Sep-16 15:34N 51°07' E 001°20'1514.6
2014-Sep-16 14:33N 50°60' E 001°40'7 5.6
2014-Sep-16 13:16N 50°58' E 001°51'1014.3
2014-Sep-16 12:33N 50°60' E 001°35'1211.4
2014-Sep-16 11:29N 51°07' E 001°20'6 6.6
2014-Sep-16 10:33N 51°06' E 001°29'1615.6
2014-Sep-16 09:33N 50°58' E 001°51'2 2.3
2014-Sep-16 08:34N 50°58' E 001°47'1616.4
2014-Sep-16 07:33N 51°05' E 001°24'3 2.5
2014-Sep-16 06:22N 51°07' E 001°20'1215.0
2014-Sep-16 05:34N 51°02' E 001°38'10 9.6
2014-Sep-16 04:33N 50°58' E 001°51'4 3.6
2014-Sep-16 03:33N 50°58' E 001°45'1615.7
2014-Sep-16 02:34N 51°06' E 001°24'3 2.6
2014-Sep-16 01:23N 51°07' E 001°20'3 4.0
2014-Sep-16 00:34N 51°06' E 001°25'1615.8
2014-Sep-15 23:34N 50°58' E 001°46'3 2.8
2014-Sep-15 22:33N 50°58' E 001°51'1212.0
2014-Sep-15 21:33N 51°02' E 001°33'10 8.0
2014-Sep-15 20:19N 51°07' E 001°20'810.7
2014-Sep-15 19:33N 51°06' E 001°33'1413.7
2014-Sep-15 18:33N 50°58' E 001°51'3 3.3
2014-Sep-15 17:31N 50°58' E 001°45'1918.5
2014-Sep-15 16:30N 51°07' E 001°20'1 0.7
2014-Sep-15 15:33N 51°07' E 001°21'1817.8
2014-Sep-15 14:33N 50°58' E 001°45'3 2.6
2014-Sep-15 13:13N 50°58' E 001°50'1216.5
2014-Sep-15 12:30N 50°59' E 001°32'11 9.2
2014-Sep-15 11:18N 51°07' E 001°20'6 8.3
2014-Sep-15 10:34N 51°05' E 001°29'1511.6
2014-Sep-15 09:14N 50°58' E 001°51'4 5.4
2014-Sep-15 08:27N 50°58' E 001°44'1718.9
2014-Sep-15 07:32N 51°07' E 001°21'1 0.7
2014-Sep-15 06:30N 51°07' E 001°20'1212.8
2014-Sep-15 05:34N 51°01' E 001°36'7 3.5
2014-Sep-15 03:33N 50°58' E 001°46'1515.0
2014-Sep-15 02:33N 51°05' E 001°26'4 3.0
2014-Sep-15 01:11N 51°07' E 001°20'3 4.7
2014-Sep-15 00:33N 51°06' E 001°25'1615.7
2014-Sep-14 23:33N 50°58' E 001°46'3 3.3
2014-Sep-14 22:32N 50°58' E 001°51'1313.3
2014-Sep-14 21:33N 51°01' E 001°31'5 2.4
2014-Sep-14 19:34N 51°06' E 001°29'14 6.6
2014-Sep-14 17:30N 50°58' E 001°46'18 9.1
2014-Sep-14 15:33N 51°07' E 001°22'1818.3
2014-Sep-14 14:34N 50°58' E 001°47'3 2.6
2014-Sep-14 13:33N 50°58' E 001°51'1211.6
2014-Sep-14 12:30N 51°01' E 001°32'10 7.1
2014-Sep-14 11:04N 51°07' E 001°20'917.7
2014-Sep-14 10:34N 51°04' E 001°33'1212.1
2014-Sep-14 09:32N 50°58' E 001°51'9 7.5
2014-Sep-14 08:17N 50°59' E 001°36'10 3.5
2014-Sep-14 05:34N 51°07' E 001°27'1717.1
2014-Sep-14 04:33N 50°58' E 001°51'1 0.6
2014-Sep-14 03:17N 50°58' E 001°50'3 4.5
2014-Sep-14 02:33N 51°00' E 001°45'0 0.0
2014-Sep-14 01:33N 51°00' E 001°45'10 2.6
2014-Sep-13 21:34N 51°04' E 001°30'1 0.5
2014-Sep-13 19:34N 51°05' E 001°29'1512.4
2014-Sep-13 18:19N 50°58' E 001°51'7 6.1
2014-Sep-13 17:14N 50°59' E 001°41'1217.8
2014-Sep-13 16:33N 51°05' E 001°25'2 2.0
2014-Sep-13 15:27N 51°07' E 001°22'1718.4
2014-Sep-13 14:34N 50°58' E 001°45'4 3.3
2014-Sep-13 13:21N 50°58' E 001°51'1011.7
2014-Sep-13 12:30N 51°00' E 001°36'7 3.4
2014-Sep-13 10:33N 51°05' E 001°28'1615.8
2014-Sep-13 09:33N 50°58' E 001°51'5 4.6
2014-Sep-13 08:27N 50°58' E 001°43'16 7.1
2014-Sep-13 06:12N 51°07' E 001°22'1117.8
2014-Sep-13 05:33N 51°02' E 001°39'9 6.6
2014-Sep-13 04:09N 50°58' E 001°52'5 8.4
2014-Sep-13 03:33N 50°58' E 001°44'1515.2
2014-Sep-13 02:33N 51°06' E 001°23'1 0.4
2014-Sep-13 00:33N 51°07' E 001°23'1717.0
2014-Sep-12 23:33N 50°58' E 001°47'3 2.7
2014-Sep-12 22:32N 50°58' E 001°51'1413.9
2014-Sep-12 21:34N 51°02' E 001°31'2 0.8
2014-Sep-12 19:33N 51°04' E 001°30'1412.1
2014-Sep-12 18:22N 50°58' E 001°51'5 6.1
2014-Sep-12 17:30N 50°58' E 001°43'15 7.8
2014-Sep-12 15:33N 51°07' E 001°24'1616.3
2014-Sep-12 14:34N 50°58' E 001°45'7 3.6
2014-Sep-12 12:29N 51°01' E 001°34'7 3.6
2014-Sep-12 10:33N 51°06' E 001°26'1717.2
2014-Sep-12 09:34N 50°58' E 001°51'1 0.6
2014-Sep-12 08:34N 50°58' E 001°50'1716.8
2014-Sep-12 07:34N 51°06' E 001°26'4 2.9
2014-Sep-12 06:15N 51°07' E 001°20'1216.7
2014-Sep-12 05:34N 51°01' E 001°36'10 9.7
2014-Sep-12 04:33N 50°58' E 001°51'3 2.7
2014-Sep-12 03:30N 50°58' E 001°46'1414.5
2014-Sep-12 02:33N 51°04' E 001°27'2 1.2
2014-Sep-12 00:34N 51°06' E 001°26'1616.1
2014-Sep-11 23:33N 50°58' E 001°49'1 1.3
2014-Sep-11 22:26N 50°58' E 001°51'1315.1
2014-Sep-11 21:33N 51°02' E 001°31'9 6.0
2014-Sep-11 20:07N 51°07' E 001°20'1017.6
2014-Sep-11 19:34N 51°02' E 001°34'1211.1
2014-Sep-11 18:31N 50°58' E 001°51'6 6.0
2014-Sep-11 17:33N 50°58' E 001°42'16 8.1
2014-Sep-11 15:33N 51°07' E 001°21'1817.8
2014-Sep-11 14:33N 50°58' E 001°45'3 2.2
2014-Sep-11 13:06N 50°58' E 001°50'1119.9
2014-Sep-11 12:34N 50°60' E 001°33'4 2.2
2014-Sep-11 10:34N 51°04' E 001°31'1413.5
2014-Sep-11 09:33N 50°58' E 001°51'8 6.3
2014-Sep-11 08:15N 50°59' E 001°38'1318.2
2014-Sep-11 07:34N 51°06' E 001°22'1 0.7
2014-Sep-11 06:16N 51°07' E 001°22'1014.9
2014-Sep-11 05:33N 51°02' E 001°36'10 9.9
2014-Sep-11 04:33N 50°58' E 001°51'3 3.5
2014-Sep-11 03:33N 50°58' E 001°46'1414.2
2014-Sep-11 02:33N 51°05' E 001°27'3 1.3
2014-Sep-11 00:34N 51°07' E 001°30'1515.4
2014-Sep-10 23:33N 50°58' E 001°51'0 0.3
2014-Sep-10 22:29N 50°58' E 001°51'1415.3
2014-Sep-10 21:34N 51°03' E 001°30'7 5.3
2014-Sep-10 20:16N 51°07' E 001°22'1419.6
2014-Sep-10 19:33N 50°60' E 001°40'7 6.3
2014-Sep-10 18:27N 50°58' E 001°51'1112.2
2014-Sep-10 17:33N 50°59' E 001°34'8 3.8
2014-Sep-10 15:33N 51°06' E 001°29'1612.8
2014-Sep-10 14:19N 50°58' E 001°51'1 0.8
2014-Sep-10 13:14N 50°58' E 001°50'1319.3
2014-Sep-10 12:33N 51°03' E 001°31'2 0.9
2014-Sep-10 10:34N 51°04' E 001°33'1311.9
2014-Sep-10 09:28N 50°58' E 001°51'3 2.8
2014-Sep-10 08:29N 50°58' E 001°47'1516.6
2014-Sep-10 07:33N 51°04' E 001°24'3 2.3
2014-Sep-10 06:04N 51°07' E 001°21'917.8
2014-Sep-10 05:34N 51°03' E 001°34'1211.8
2014-Sep-10 04:33N 50°58' E 001°51'4 3.9
2014-Sep-10 03:27N 50°58' E 001°44'1314.0
2014-Sep-10 02:34N 51°05' E 001°28'3 1.4
2014-Sep-10 00:33N 51°07' E 001°25'1616.0
2014-Sep-09 23:33N 50°58' E 001°46'3 2.3
2014-Sep-09 22:19N 50°58' E 001°51'1316.7
2014-Sep-09 21:33N 51°01' E 001°31'9 5.7
2014-Sep-09 20:03N 51°07' E 001°21'816.7
2014-Sep-09 19:33N 51°03' E 001°32'1311.2
2014-Sep-09 18:26N 50°58' E 001°51'5 5.8
2014-Sep-09 17:31N 50°58' E 001°42'15 7.8
2014-Sep-09 15:33N 51°07' E 001°23'1918.6
2014-Sep-09 14:33N 50°58' E 001°49'2 1.5
2014-Sep-09 13:25N 50°58' E 001°52'1314.4
2014-Sep-09 12:29N 51°00' E 001°31'9 6.5
2014-Sep-09 11:03N 51°07' E 001°21'917.7
2014-Sep-09 10:34N 51°03' E 001°33'1212.4
2014-Sep-09 09:33N 50°58' E 001°51'4 3.9
2014-Sep-09 08:32N 50°58' E 001°45'18 8.0
2014-Sep-09 06:16N 51°07' E 001°20'1216.3
2014-Sep-09 05:34N 51°02' E 001°36'10 9.9
2014-Sep-09 04:31N 50°58' E 001°52'3 3.1
2014-Sep-09 03:29N 50°58' E 001°47'1516.6
2014-Sep-09 02:33N 51°05' E 001°25'2 0.8
2014-Sep-09 00:33N 51°07' E 001°24'1616.4
2014-Sep-08 23:33N 50°58' E 001°46'3 2.5
2014-Sep-08 22:27N 50°58' E 001°51'1415.8
2014-Sep-08 21:33N 51°02' E 001°29'3 1.3
2014-Sep-08 19:33N 51°04' E 001°32'1410.2
2014-Sep-08 18:13N 50°58' E 001°51'5 6.3
2014-Sep-08 17:29N 50°58' E 001°44'16 8.0
2014-Sep-08 15:27N 51°07' E 001°22'1718.7
2014-Sep-08 14:33N 50°58' E 001°45'4 3.4
2014-Sep-08 13:16N 50°58' E 001°52'1114.6
2014-Sep-08 12:33N 51°00' E 001°35'6 2.9
2014-Sep-08 10:33N 51°05' E 001°30'1510.9
2014-Sep-08 09:11N 50°58' E 001°51'1 1.5
2014-Sep-08 08:32N 50°58' E 001°50'1817.9
2014-Sep-08 07:34N 51°06' E 001°24'2 1.3
2014-Sep-08 06:07N 51°07' E 001°22'916.4
2014-Sep-08 05:33N 51°02' E 001°34'1111.0
2014-Sep-08 04:32N 50°58' E 001°51'5 4.5
2014-Sep-08 03:26N 50°58' E 001°43'1516.9
2014-Sep-08 02:34N 51°06' E 001°24'1 0.6
2014-Sep-08 00:33N 51°06' E 001°25'1616.3
2014-Sep-07 23:34N 50°58' E 001°49'1 1.1
2014-Sep-07 22:26N 50°58' E 001°50'1416.5
2014-Sep-07 21:34N 51°03' E 001°29'2 1.1
2014-Sep-07 19:34N 51°05' E 001°31'13 6.3
2014-Sep-07 17:33N 50°58' E 001°48'1515.5
2014-Sep-07 16:34N 51°05' E 001°26'5 4.2
2014-Sep-07 15:30N 51°07' E 001°20'1515.8
2014-Sep-07 14:33N 50°60' E 001°41'7 6.2
2014-Sep-07 13:28N 50°58' E 001°51'1011.3
2014-Sep-07 12:33N 50°59' E 001°35'1211.9
2014-Sep-07 11:31N 51°07' E 001°20'1010.2
2014-Sep-07 10:33N 51°04' E 001°35'1210.8
2014-Sep-07 09:27N 50°58' E 001°51'5 5.9
2014-Sep-07 08:33N 50°58' E 001°43'1713.6
2014-Sep-07 07:19N 51°07' E 001°20'0 0.0
2014-Sep-07 06:29N 51°07' E 001°20'5 5.1
2014-Sep-07 05:33N 51°04' E 001°26'3 2.7
2014-Sep-07 04:33N 51°04' E 001°30'1313.2
2014-Sep-07 03:33N 50°58' E 001°49'1716.9
2014-Sep-07 02:33N 51°06' E 001°25'1813.1
2014-Sep-07 01:10N 50°58' E 001°51'1727.8
2014-Sep-07 00:34N 51°06' E 001°27'1414.3
2014-Sep-06 23:33N 50°58' E 001°46'3 3.0
2014-Sep-06 22:33N 50°58' E 001°51'1313.4
2014-Sep-06 21:34N 51°02' E 001°31'  

Dump ship's entire track history